createdAt,value
2018-05-23T00:00:18.749Z,10.60
2018-05-23T00:02:46.251Z,9.53
2018-05-23T00:05:13.705Z,10.53
2018-05-23T00:07:41.189Z,10.50
2018-05-23T00:10:08.672Z,11.10
2018-05-23T00:12:36.145Z,11.90
2018-05-23T00:15:03.635Z,11.60
2018-05-23T00:17:31.102Z,13.73
2018-05-23T00:19:58.572Z,12.80
2018-05-23T00:22:26.061Z,12.80
2018-05-23T00:24:53.524Z,14.10
2018-05-23T00:27:20.975Z,13.30
2018-05-23T00:29:48.489Z,16.13
2018-05-23T00:32:15.958Z,14.80
2018-05-23T00:34:43.416Z,15.30
2018-05-23T00:37:11.149Z,15.70
2018-05-23T00:39:38.671Z,15.43
2018-05-23T00:42:06.432Z,15.13
2018-05-23T00:44:33.901Z,16.50
2018-05-23T00:47:01.378Z,15.47
2018-05-23T00:49:29.648Z,14.53
2018-05-23T00:51:57.111Z,14.33
2018-05-23T00:54:25.369Z,13.80
2018-05-23T00:56:52.835Z,14.63
2018-05-23T00:59:20.303Z,14.30
2018-05-23T01:01:48.560Z,14.03
2018-05-23T01:04:16.069Z,13.80
2018-05-23T01:06:43.572Z,13.67
2018-05-23T01:09:11.061Z,13.70
2018-05-23T01:11:39.285Z,13.20
2018-05-23T01:14:06.761Z,13.47
2018-05-23T01:16:34.224Z,13.57
2018-05-23T01:19:01.729Z,13.33
2018-05-23T01:21:29.194Z,13.27
2018-05-23T01:23:56.674Z,12.77
2018-05-23T01:26:24.166Z,12.83
2018-05-23T01:28:52.406Z,12.30
2018-05-23T01:31:19.893Z,13.17
2018-05-23T01:33:47.370Z,12.30
2018-05-23T01:36:15.609Z,12.60
2018-05-23T01:38:43.113Z,12.93
2018-05-23T01:41:11.364Z,13.33
2018-05-23T01:43:39.582Z,12.17
2018-05-23T01:46:07.853Z,12.50
2018-05-23T01:48:47.301Z,13.03
2018-05-23T01:51:14.784Z,13.70
2018-05-23T01:53:42.246Z,12.83
2018-05-23T01:56:09.745Z,12.53
2018-05-23T01:58:37.994Z,13.03
2018-05-23T02:01:05.484Z,13.30
2018-05-23T02:03:33.724Z,13.37
2018-05-23T02:06:01.239Z,13.47
2018-05-23T02:08:28.705Z,13.73
2018-05-23T02:10:56.160Z,13.67
2018-05-23T02:13:23.628Z,12.87
2018-05-23T02:15:51.117Z,14.23
2018-05-23T02:18:18.567Z,13.80
2018-05-23T02:20:46.078Z,13.10
2018-05-23T02:23:13.518Z,12.80
2018-05-23T02:25:41.000Z,13.60
2018-05-23T02:28:08.461Z,13.37
2018-05-23T02:30:35.954Z,13.37
2018-05-23T02:33:03.433Z,13.87
2018-05-23T02:35:31.708Z,14.00
2018-05-23T02:37:59.929Z,13.23
2018-05-23T02:40:27.416Z,13.10
2018-05-23T02:42:54.897Z,13.47
2018-05-23T02:45:22.369Z,14.37
2018-05-23T02:47:50.610Z,13.37
2018-05-23T02:50:18.100Z,13.80
2018-05-23T02:52:46.330Z,13.90
2018-05-23T02:55:13.823Z,14.30
2018-05-23T02:57:42.078Z,14.03
2018-05-23T03:00:09.573Z,14.23
2018-05-23T03:02:37.065Z,14.80
2018-05-23T03:05:04.513Z,14.73
2018-05-23T03:07:31.983Z,14.27
2018-05-23T03:09:59.469Z,13.87
2018-05-23T03:12:26.948Z,14.40
2018-05-23T03:14:55.203Z,15.30
2018-05-23T03:17:22.664Z,13.70
2018-05-23T03:19:50.144Z,15.20
2018-05-23T03:22:18.431Z,14.23
2018-05-23T03:24:46.677Z,15.07
2018-05-23T03:27:14.160Z,14.70
2018-05-23T03:29:42.382Z,14.93
2018-05-23T03:32:09.854Z,13.90
2018-05-23T03:34:37.309Z,13.43
2018-05-23T03:37:04.801Z,14.60
2018-05-23T03:39:33.037Z,14.90
2018-05-23T03:42:00.533Z,15.07
2018-05-23T03:44:28.753Z,15.60
2018-05-23T03:46:56.242Z,16.73
2018-05-23T03:49:23.753Z,14.43
2018-05-23T03:51:51.237Z,14.73
2018-05-23T03:54:18.708Z,15.33
2018-05-23T03:56:46.159Z,15.80
2018-05-23T03:59:13.657Z,17.00
2018-05-23T04:01:53.799Z,16.70
2018-05-23T04:04:33.201Z,18.40
2018-05-23T04:10:05.821Z,18.37
2018-05-23T04:12:33.311Z,16.93
2018-05-23T04:15:01.541Z,15.50
2018-05-23T04:17:29.051Z,15.10
2018-05-23T04:19:56.535Z,15.80
2018-05-23T04:22:24.013Z,17.07
2018-05-23T04:24:51.503Z,18.47
2018-05-23T04:27:18.976Z,17.60
2018-05-23T04:29:46.451Z,21.40
2018-05-23T04:32:13.931Z,21.30
2018-05-23T04:34:41.395Z,24.60
2018-05-23T04:37:08.877Z,25.23
2018-05-23T04:39:36.370Z,25.73
2018-05-23T04:42:03.856Z,26.63
2018-05-23T04:44:31.317Z,25.80
2018-05-23T04:46:58.772Z,27.27
2018-05-23T04:49:26.259Z,28.70
2018-05-23T04:51:53.747Z,31.73
2018-05-23T04:54:21.996Z,32.63
2018-05-23T04:56:49.462Z,33.33
2018-05-23T04:59:16.946Z,32.97
2018-05-23T05:01:44.426Z,31.60
2018-05-23T05:04:12.650Z,30.73
2018-05-23T05:06:40.164Z,34.63
2018-05-23T05:09:07.648Z,37.43
2018-05-23T05:11:35.101Z,39.50
2018-05-23T05:14:02.601Z,35.93
2018-05-23T05:16:30.834Z,38.57
2018-05-23T05:18:58.314Z,39.40
2018-05-23T05:21:25.789Z,37.80
2018-05-23T05:23:54.049Z,39.67
2018-05-23T05:26:21.535Z,37.03
2018-05-23T05:28:49.025Z,38.97
2018-05-23T05:31:17.269Z,40.43
2018-05-23T05:33:44.724Z,40.20
2018-05-23T05:36:12.212Z,41.30
2018-05-23T05:38:39.681Z,38.90
2018-05-23T05:41:07.155Z,36.77
2018-05-23T05:43:34.637Z,39.70
2018-05-23T05:46:02.874Z,37.80
2018-05-23T05:48:30.369Z,36.27
2018-05-23T05:50:57.816Z,35.60
2018-05-23T05:53:25.273Z,37.30
2018-05-23T05:55:52.727Z,34.43
2018-05-23T05:58:20.225Z,33.37
2018-05-23T06:00:47.713Z,33.10
2018-05-23T06:03:15.197Z,33.30
2018-05-23T06:05:42.693Z,32.57
2018-05-23T06:08:10.156Z,32.23
2018-05-23T06:10:37.654Z,28.67
2018-05-23T06:13:05.123Z,28.03
2018-05-23T06:15:32.608Z,24.23
2018-05-23T06:18:00.832Z,23.90
2018-05-23T06:20:28.289Z,21.90
2018-05-23T06:22:55.792Z,19.63
2018-05-23T06:25:23.257Z,19.77
2018-05-23T06:27:50.743Z,19.00
2018-05-23T06:30:18.241Z,19.30
2018-05-23T06:32:45.693Z,20.67
2018-05-23T06:35:13.157Z,19.93
2018-05-23T06:37:40.721Z,19.27
2018-05-23T06:40:08.853Z,20.70
2018-05-23T06:42:36.342Z,20.93
2018-05-23T06:45:03.806Z,19.63
2018-05-23T06:47:31.309Z,20.23
2018-05-23T06:49:59.551Z,21.37
2018-05-23T06:52:27.020Z,22.20
2018-05-23T06:54:55.252Z,21.07
2018-05-23T06:57:22.742Z,20.80
2018-05-23T06:59:50.221Z,22.70
2018-05-23T07:02:17.681Z,22.20
2018-05-23T07:04:45.930Z,22.00
2018-05-23T07:07:13.407Z,22.10
2018-05-23T07:09:41.655Z,21.33
2018-05-23T07:12:09.113Z,23.73
2018-05-23T07:14:36.580Z,21.97
2018-05-23T07:17:04.069Z,22.77
2018-05-23T07:19:32.304Z,23.47
2018-05-23T07:21:59.759Z,23.97
2018-05-23T07:24:27.246Z,23.67
2018-05-23T07:26:55.495Z,23.93
2018-05-23T07:29:22.982Z,23.60
2018-05-23T07:31:51.217Z,23.63
2018-05-23T07:34:18.705Z,23.60
2018-05-23T07:36:46.173Z,23.20
2018-05-23T07:39:14.417Z,22.50
2018-05-23T07:41:42.051Z,21.83
2018-05-23T07:44:09.554Z,22.27
2018-05-23T07:46:37.051Z,23.10
2018-05-23T07:49:04.551Z,24.67
2018-05-23T07:51:32.023Z,22.40
2018-05-23T07:53:59.496Z,23.80
2018-05-23T07:56:27.753Z,22.60
2018-05-23T07:58:55.222Z,22.50
2018-05-23T08:01:23.480Z,22.67
2018-05-23T08:03:50.974Z,23.00
2018-05-23T08:06:19.247Z,23.60
2018-05-23T08:08:47.513Z,23.17
2018-05-23T08:11:15.736Z,29.27
2018-05-23T08:13:43.238Z,29.37
2018-05-23T08:16:10.748Z,27.93
2018-05-23T08:18:38.230Z,23.90
2018-05-23T08:21:05.713Z,23.30
2018-05-23T08:23:33.962Z,23.47
2018-05-23T08:26:01.417Z,22.80
2018-05-23T08:28:28.912Z,24.47
2018-05-23T08:30:56.425Z,22.30
2018-05-23T08:33:23.870Z,21.27
2018-05-23T08:35:51.372Z,19.27
2018-05-23T08:38:18.830Z,20.77
2018-05-23T08:40:46.294Z,20.90
2018-05-23T08:43:14.521Z,22.40
2018-05-23T08:45:42.005Z,22.67
2018-05-23T08:48:09.484Z,23.23
2018-05-23T08:50:36.959Z,24.17
2018-05-23T08:53:05.191Z,23.57
2018-05-23T08:55:32.679Z,23.93
2018-05-23T08:58:00.917Z,24.90
2018-05-23T09:00:28.428Z,25.43
2018-05-23T09:02:56.672Z,24.60
2018-05-23T09:05:24.185Z,23.73
2018-05-23T09:07:51.651Z,25.20
2018-05-23T09:10:19.139Z,25.10
2018-05-23T09:12:46.590Z,23.40
2018-05-23T09:15:14.075Z,23.70
2018-05-23T09:17:42.292Z,23.50
2018-05-23T09:20:09.768Z,22.73
2018-05-23T09:22:37.225Z,23.70
2018-05-23T09:25:04.708Z,22.53
2018-05-23T09:27:32.169Z,23.00
2018-05-23T09:29:59.657Z,22.50
2018-05-23T09:32:27.116Z,22.40
2018-05-23T09:34:54.578Z,23.23
2018-05-23T09:37:22.048Z,23.40
2018-05-23T09:39:49.544Z,23.47
2018-05-23T09:42:17.061Z,38.30
2018-05-23T09:44:44.558Z,22.43
2018-05-23T09:47:12.033Z,25.40
2018-05-23T09:49:39.506Z,21.67
2018-05-23T09:52:07.758Z,20.10
2018-05-23T09:54:35.248Z,21.47
2018-05-23T09:57:03.506Z,21.50
2018-05-23T09:59:31.013Z,24.17
2018-05-23T10:01:58.480Z,22.40
2018-05-23T10:04:25.976Z,22.93
2018-05-23T10:06:54.246Z,23.10
2018-05-23T10:09:21.831Z,20.03
2018-05-23T10:11:50.073Z,18.80
2018-05-23T10:14:17.601Z,17.57
2018-05-23T10:16:45.064Z,19.17
2018-05-23T10:19:12.554Z,18.83
2018-05-23T10:21:40.026Z,19.93
2018-05-23T10:24:08.271Z,17.23
2018-05-23T10:26:35.737Z,17.00
2018-05-23T10:29:03.220Z,18.40
2018-05-23T10:31:31.441Z,16.33
2018-05-23T10:33:58.948Z,16.00
2018-05-23T10:36:26.452Z,16.57
2018-05-23T10:38:54.052Z,13.57
2018-05-23T10:41:21.649Z,13.60
2018-05-23T10:43:49.133Z,14.33
2018-05-23T10:46:17.428Z,20.00
2018-05-23T10:48:44.866Z,20.10
2018-05-23T10:51:12.341Z,19.13
2018-05-23T10:53:39.859Z,21.70
2018-05-23T10:56:07.330Z,20.53
2018-05-23T10:58:34.832Z,20.10
2018-05-23T11:01:02.305Z,16.60
2018-05-23T11:03:29.838Z,16.50
2018-05-23T11:05:57.368Z,14.50
2018-05-23T11:08:24.753Z,16.00
2018-05-23T11:10:52.237Z,14.23
2018-05-23T11:13:19.765Z,16.03
2018-05-23T11:15:47.353Z,17.60
2018-05-23T11:18:14.834Z,16.77
2018-05-23T11:20:42.317Z,16.37
2018-05-23T11:23:09.791Z,16.73
2018-05-23T11:25:37.358Z,15.70
2018-05-23T11:28:04.728Z,19.93
2018-05-23T11:30:32.233Z,17.80
2018-05-23T11:32:59.698Z,17.57
2018-05-23T11:35:27.161Z,17.13
2018-05-23T11:37:54.649Z,16.50
2018-05-23T11:40:22.134Z,15.63
2018-05-23T11:42:50.371Z,17.87
2018-05-23T11:45:17.852Z,16.40
2018-05-23T11:47:45.373Z,16.60
2018-05-23T11:50:12.887Z,19.00
2018-05-23T11:52:40.398Z,16.20
2018-05-23T11:55:07.960Z,16.70
2018-05-23T11:57:35.540Z,15.17
2018-05-23T12:00:03.044Z,15.17
2018-05-23T12:02:31.316Z,13.53
2018-05-23T12:04:58.829Z,13.83
2018-05-23T12:07:26.293Z,14.17
2018-05-23T12:09:53.799Z,14.80
2018-05-23T12:12:21.277Z,14.20
2018-05-23T12:14:48.826Z,14.30
2018-05-23T12:17:16.268Z,14.90
2018-05-23T12:19:43.770Z,15.27
2018-05-23T12:22:11.230Z,15.30
2018-05-23T12:24:38.743Z,15.40
2018-05-23T12:27:06.221Z,16.47
2018-05-23T12:29:33.678Z,15.70
2018-05-23T12:32:01.169Z,16.97
2018-05-23T12:34:28.636Z,16.33
2018-05-23T12:36:56.114Z,15.97
2018-05-23T12:39:24.355Z,15.40
2018-05-23T12:41:51.829Z,15.77
2018-05-23T12:44:19.320Z,16.30
2018-05-23T12:46:46.824Z,18.30
2018-05-23T12:49:14.299Z,18.50
2018-05-23T12:51:41.811Z,16.70
2018-05-23T12:54:09.273Z,18.20
2018-05-23T12:56:36.752Z,18.20
2018-05-23T12:59:04.224Z,18.77
2018-05-23T13:01:31.724Z,16.50
2018-05-23T13:03:59.212Z,17.83
2018-05-23T13:06:26.708Z,16.20
2018-05-23T13:08:54.172Z,16.50
2018-05-23T13:11:21.626Z,16.77
2018-05-23T13:13:49.096Z,17.70
2018-05-23T13:16:17.337Z,16.33
2018-05-23T13:18:44.886Z,18.97
2018-05-23T13:21:12.358Z,17.50
2018-05-23T13:23:39.844Z,16.40
2018-05-23T13:26:08.056Z,16.80
2018-05-23T13:28:35.558Z,15.50
2018-05-23T13:31:03.032Z,16.30
2018-05-23T13:33:31.274Z,17.63
2018-05-23T13:35:58.720Z,22.30
2018-05-23T13:38:26.173Z,18.23
2018-05-23T13:40:53.666Z,18.60
2018-05-23T13:43:21.137Z,19.27
2018-05-23T13:45:48.629Z,20.20
2018-05-23T13:48:16.105Z,20.00
2018-05-23T13:50:43.557Z,20.67
2018-05-23T13:53:11.069Z,20.53
2018-05-23T13:55:38.532Z,20.70
2018-05-23T13:58:06.843Z,19.77
2018-05-23T14:00:34.333Z,20.23
2018-05-23T14:03:01.815Z,19.43
2018-05-23T14:05:29.293Z,18.33
2018-05-23T14:07:56.748Z,19.00
2018-05-23T14:10:24.248Z,19.67
2018-05-23T14:12:51.731Z,17.50
2018-05-23T14:15:19.225Z,19.50
2018-05-23T14:17:47.669Z,17.73
2018-05-23T14:20:15.126Z,16.70
2018-05-23T14:22:42.613Z,17.27
2018-05-23T14:25:10.846Z,16.03
2018-05-23T14:27:38.356Z,15.50
2018-05-23T14:30:06.568Z,14.20
2018-05-23T14:32:34.133Z,13.70
2018-05-23T14:35:01.639Z,15.50
2018-05-23T14:37:29.913Z,15.50
2018-05-23T14:39:58.171Z,16.57
2018-05-23T14:42:25.624Z,17.27
2018-05-23T14:44:53.103Z,15.70
2018-05-23T14:47:21.449Z,16.43
2018-05-23T14:49:48.936Z,16.60
2018-05-23T14:52:17.312Z,15.70
2018-05-23T14:54:45.632Z,15.20
2018-05-23T14:57:13.175Z,14.50
2018-05-23T14:59:40.995Z,15.30
2018-05-23T15:02:08.557Z,13.90
2018-05-23T15:04:36.367Z,15.50
2018-05-23T15:07:03.879Z,14.17
2018-05-23T15:09:31.395Z,17.60
2018-05-23T15:11:58.957Z,15.90
2018-05-23T15:14:27.619Z,16.50
2018-05-23T15:16:55.097Z,18.03
2018-05-23T15:19:22.564Z,16.53
2018-05-23T15:21:50.069Z,15.93
2018-05-23T15:24:17.560Z,15.13
2018-05-23T15:26:45.086Z,13.40
2018-05-23T15:29:13.304Z,12.70
2018-05-23T15:31:40.785Z,13.40
2018-05-23T15:34:08.320Z,14.03
2018-05-23T15:36:35.770Z,14.63
2018-05-23T15:39:03.293Z,13.70
2018-05-23T15:41:30.784Z,14.63
2018-05-23T15:43:58.257Z,12.90
2018-05-23T15:46:25.774Z,12.27
2018-05-23T15:48:54.005Z,13.00
2018-05-23T15:51:21.521Z,14.70
2018-05-23T15:53:48.987Z,13.43
2018-05-23T15:56:16.478Z,12.43
2018-05-23T15:58:43.960Z,15.03
2018-05-23T16:01:11.477Z,12.10
2018-05-23T16:03:38.998Z,13.07
2018-05-23T16:06:07.252Z,11.07
2018-05-23T16:08:34.734Z,12.60
2018-05-23T16:11:02.985Z,10.80
2018-05-23T16:13:30.436Z,14.30
2018-05-23T16:15:57.888Z,12.47
2018-05-23T16:18:25.375Z,11.20
2018-05-23T16:20:52.846Z,12.37
2018-05-23T16:23:21.184Z,11.10
2018-05-23T16:25:48.660Z,10.50
2018-05-23T16:28:16.133Z,9.93
2018-05-23T16:30:44.364Z,9.60
2018-05-23T16:33:11.838Z,9.43
2018-05-23T16:35:39.321Z,8.47
2018-05-23T16:38:07.561Z,9.20
2018-05-23T16:40:35.057Z,10.00
2018-05-23T16:43:03.334Z,9.10
2018-05-23T16:45:31.564Z,9.43
2018-05-23T16:47:59.034Z,9.73
2018-05-23T16:50:26.526Z,8.93
2018-05-23T16:52:54.734Z,9.00
2018-05-23T16:55:22.233Z,8.57
2018-05-23T16:57:49.685Z,8.50
2018-05-23T17:00:17.364Z,9.47
2018-05-23T17:02:44.892Z,9.00
2018-05-23T17:05:12.375Z,10.23
2018-05-23T17:07:40.237Z,8.57
2018-05-23T17:10:07.721Z,9.83
2018-05-23T17:12:36.069Z,10.93
2018-05-23T17:15:03.408Z,9.90
2018-05-23T17:17:31.029Z,10.43
2018-05-23T17:19:58.859Z,10.87
2018-05-23T17:22:26.300Z,9.97
2018-05-23T17:24:53.827Z,10.17
2018-05-23T17:27:21.324Z,10.33
2018-05-23T17:29:48.753Z,10.83
2018-05-23T17:32:16.236Z,10.77
2018-05-23T17:34:43.697Z,9.73
2018-05-23T17:37:11.174Z,9.77
2018-05-23T17:39:39.423Z,10.17
2018-05-23T17:42:06.918Z,10.97
2018-05-23T17:44:35.168Z,10.90
2018-05-23T17:47:02.722Z,10.90
2018-05-23T17:49:30.217Z,11.30
2018-05-23T17:51:58.570Z,11.63
2018-05-23T17:54:26.610Z,11.67
2018-05-23T17:56:55.284Z,11.93
2018-05-23T17:59:22.866Z,13.77
2018-05-23T18:01:50.306Z,13.00
2018-05-23T18:04:18.069Z,13.37
2018-05-23T18:06:45.880Z,15.60
2018-05-23T18:09:13.398Z,17.83
2018-05-23T18:11:40.885Z,16.23
2018-05-23T18:14:08.765Z,12.60
2018-05-23T18:16:37.720Z,10.60
2018-05-23T18:19:05.263Z,10.27
2018-05-23T18:21:32.818Z,10.03
2018-05-23T18:24:00.414Z,8.47
2018-05-23T18:26:28.701Z,8.20
2018-05-23T18:28:56.161Z,8.20
2018-05-23T18:31:23.645Z,7.43
2018-05-23T18:33:51.994Z,5.87
2018-05-23T18:36:20.302Z,5.87
2018-05-23T18:38:47.910Z,5.73
2018-05-23T18:41:15.426Z,6.13
2018-05-23T18:43:42.973Z,5.20
2018-05-23T18:46:11.397Z,5.73
2018-05-23T18:48:38.990Z,5.20
2018-05-23T18:51:06.436Z,5.77
2018-05-23T18:53:33.895Z,5.30
2018-05-23T18:56:01.357Z,5.47
2018-05-23T18:58:28.979Z,5.70
2018-05-23T19:00:57.264Z,5.20
2018-05-23T19:03:24.753Z,5.80
2018-05-23T19:05:52.201Z,5.57
2018-05-23T19:08:19.824Z,6.10
2018-05-23T19:10:47.351Z,6.00
2018-05-23T19:13:14.861Z,5.70
2018-05-23T19:15:42.352Z,6.03
2018-05-23T19:18:09.998Z,6.07
2018-05-23T19:20:37.506Z,6.33
2018-05-23T19:23:05.003Z,6.07
2018-05-23T19:25:32.457Z,6.30
2018-05-23T19:28:00.225Z,6.00
2018-05-23T19:30:27.868Z,6.50
2018-05-23T19:32:55.354Z,6.90
2018-05-23T19:35:22.811Z,6.33
2018-05-23T19:37:50.507Z,7.30
2018-05-23T19:40:19.132Z,6.90
2018-05-23T19:42:46.606Z,7.30
2018-05-23T19:45:14.091Z,6.80
2018-05-23T19:47:41.723Z,7.30
2018-05-23T19:50:09.161Z,6.33
2018-05-23T19:52:36.693Z,7.33
2018-05-23T19:55:04.226Z,7.10
2018-05-23T19:57:31.735Z,7.17
2018-05-23T19:59:59.215Z,8.00
2018-05-23T20:02:26.717Z,7.20
2018-05-23T20:04:55.009Z,6.93
2018-05-23T20:07:22.529Z,7.93
2018-05-23T20:09:49.989Z,8.40
2018-05-23T20:12:17.461Z,9.17
2018-05-23T20:14:45.726Z,7.93
2018-05-23T20:17:13.245Z,8.43
2018-05-23T20:19:40.751Z,8.33
2018-05-23T20:22:08.977Z,8.30
2018-05-23T20:24:36.480Z,9.07
2018-05-23T20:27:03.997Z,8.70
2018-05-23T20:29:31.455Z,8.70
2018-05-23T20:31:59.116Z,8.50
2018-05-23T20:34:26.602Z,9.23
2018-05-23T20:36:54.025Z,9.00
2018-05-23T20:39:21.504Z,9.00
2018-05-23T20:41:48.992Z,8.80
2018-05-23T20:44:17.272Z,8.23
2018-05-23T20:46:44.720Z,7.97
2018-05-23T20:49:12.238Z,9.57
2018-05-23T20:51:39.731Z,9.40
2018-05-23T20:54:07.198Z,9.00
2018-05-23T20:56:35.440Z,9.60
2018-05-23T20:59:02.946Z,9.73
2018-05-23T21:01:31.232Z,9.13
2018-05-23T21:03:58.749Z,10.10
2018-05-23T21:06:26.238Z,9.80
2018-05-23T21:08:54.510Z,9.67
2018-05-23T21:11:22.720Z,11.07
2018-05-23T21:13:50.195Z,10.17
2018-05-23T21:16:17.679Z,9.97
2018-05-23T21:18:45.165Z,10.20
2018-05-23T21:21:13.478Z,11.27
2018-05-23T21:23:40.963Z,10.33
2018-05-23T21:26:08.467Z,11.10
2018-05-23T21:28:36.680Z,10.00
2018-05-23T21:31:04.184Z,10.20
2018-05-23T21:33:32.448Z,10.90
2018-05-23T21:35:59.953Z,12.97
2018-05-23T21:38:27.501Z,12.57
2018-05-23T21:40:55.003Z,11.43
2018-05-23T21:43:22.496Z,10.53
2018-05-23T21:45:50.740Z,10.80
2018-05-23T21:48:18.209Z,11.73
2018-05-23T21:50:45.690Z,11.53
2018-05-23T21:53:13.164Z,12.07
2018-05-23T21:55:40.658Z,12.20
2018-05-23T21:58:08.160Z,12.07
2018-05-23T22:00:36.405Z,13.17
2018-05-23T22:03:03.993Z,11.97
2018-05-23T22:05:31.398Z,12.67
2018-05-23T22:07:58.856Z,12.17
2018-05-23T22:10:26.346Z,12.40
2018-05-23T22:12:53.855Z,12.90
2018-05-23T22:15:21.331Z,14.57
2018-05-23T22:17:48.826Z,13.40
2018-05-23T22:20:16.280Z,14.10
2018-05-23T22:22:43.849Z,13.30
2018-05-23T22:25:11.330Z,14.27
2018-05-23T22:27:38.857Z,13.70
2018-05-23T22:30:06.360Z,14.60
2018-05-23T22:32:33.832Z,14.60
2018-05-23T22:35:01.312Z,14.43
2018-05-23T22:37:28.819Z,14.57
2018-05-23T22:39:56.273Z,15.50
2018-05-23T22:42:23.754Z,14.90
2018-05-23T22:44:51.233Z,15.00
2018-05-23T22:47:18.716Z,14.83
2018-05-23T22:49:46.209Z,14.83
2018-05-23T22:52:13.668Z,14.80
2018-05-23T22:54:41.178Z,15.93
2018-05-23T22:57:08.656Z,14.80
2018-05-23T22:59:36.167Z,14.07
2018-05-23T23:02:03.693Z,15.10
2018-05-23T23:04:31.930Z,16.60
2018-05-23T23:06:59.394Z,16.10
2018-05-23T23:09:26.909Z,16.60
2018-05-23T23:11:54.383Z,15.37
2018-05-23T23:14:21.856Z,16.10
2018-05-23T23:16:49.332Z,15.70
2018-05-23T23:19:16.806Z,15.50
2018-05-23T23:21:45.048Z,17.53
2018-05-23T23:24:12.517Z,18.13
2018-05-23T23:26:39.992Z,19.40
2018-05-23T23:29:08.214Z,18.33
2018-05-23T23:31:35.721Z,17.57
2018-05-23T23:34:03.285Z,18.23
2018-05-23T23:36:30.859Z,17.23
2018-05-23T23:38:58.398Z,17.97
2018-05-23T23:41:25.832Z,18.00
2018-05-23T23:43:53.325Z,19.87
2018-05-23T23:46:21.627Z,19.87
2018-05-23T23:48:49.107Z,20.30
2018-05-23T23:51:16.700Z,20.40
2018-05-23T23:53:44.987Z,19.47
2018-05-23T23:56:12.450Z,20.17
2018-05-23T23:58:40.677Z,21.90
